createdAt,value
2023-08-20T00:00:54.628Z,24.80
2023-08-20T00:06:56.942Z,24.70
2023-08-20T00:12:59.352Z,24.60
2023-08-20T00:19:01.519Z,24.60
2023-08-20T00:25:05.565Z,24.50
2023-08-20T00:31:07.601Z,24.50
2023-08-20T00:37:09.733Z,24.40
2023-08-20T00:43:12.974Z,24.40
2023-08-20T00:49:15.671Z,24.30
2023-08-20T00:55:17.945Z,24.30
2023-08-20T01:01:20.570Z,24.30
2023-08-20T01:07:28.646Z,24.30
2023-08-20T01:13:30.977Z,24.20
2023-08-20T01:19:33.443Z,24.10
2023-08-20T01:25:48.739Z,24.00
2023-08-20T01:31:51.445Z,23.90
2023-08-20T01:37:55.181Z,23.80
2023-08-20T01:43:57.439Z,23.70
2023-08-20T01:50:00.139Z,23.70
2023-08-20T01:56:02.231Z,23.60
2023-08-20T02:02:05.886Z,23.50
2023-08-20T02:08:08.116Z,23.40
2023-08-20T02:14:10.209Z,23.40
2023-08-20T02:20:12.913Z,23.30
2023-08-20T02:26:16.486Z,23.30
2023-08-20T02:32:18.704Z,23.60
2023-08-20T02:38:20.890Z,23.80
2023-08-20T02:44:23.378Z,24.30
2023-08-20T02:50:25.394Z,24.70
2023-08-20T02:56:27.493Z,25.10
2023-08-20T03:02:29.666Z,25.60
2023-08-20T03:08:32.461Z,26.40
2023-08-20T03:14:34.653Z,27.30
2023-08-20T03:20:36.892Z,28.20
2023-08-20T03:26:39.188Z,28.50
2023-08-20T03:32:41.762Z,28.40
2023-08-20T03:38:44.344Z,28.50
2023-08-20T03:44:46.562Z,28.50
2023-08-20T03:50:48.790Z,28.60
2023-08-20T03:56:52.029Z,28.90
2023-08-20T04:02:54.186Z,29.10
2023-08-20T04:08:56.481Z,29.30
2023-08-20T04:14:58.524Z,29.50
2023-08-20T04:21:01.176Z,29.80
2023-08-20T04:27:03.497Z,30.10
2023-08-20T04:33:06.831Z,30.40
2023-08-20T04:39:09.384Z,30.70
2023-08-20T04:45:14.722Z,31.00
2023-08-20T04:51:17.036Z,31.30
2023-08-20T04:57:19.396Z,31.60
2023-08-20T05:03:22.507Z,32.20
2023-08-20T05:09:25.171Z,32.60
2023-08-20T05:15:27.200Z,33.10
2023-08-20T05:21:29.354Z,34.40
2023-08-20T05:27:31.855Z,37.80
2023-08-20T05:33:34.506Z,36.60
2023-08-20T05:39:44.446Z,37.80
2023-08-20T05:45:47.075Z,39.10
2023-08-20T05:51:55.027Z,39.80
2023-08-20T05:57:57.486Z,40.50
2023-08-20T06:04:00.204Z,41.30
2023-08-20T06:10:02.605Z,42.10
2023-08-20T06:16:05.773Z,43.20
2023-08-20T06:22:07.902Z,43.10
2023-08-20T06:28:10.946Z,44.00
2023-08-20T06:34:13.438Z,43.40
2023-08-20T06:40:15.604Z,44.30
2023-08-20T06:46:17.872Z,44.80
2023-08-20T06:52:19.925Z,44.60
2023-08-20T06:58:22.134Z,44.70
2023-08-20T07:04:24.304Z,45.60
2023-08-20T07:10:26.556Z,45.70
2023-08-20T07:16:28.662Z,46.20
2023-08-20T07:22:31.118Z,46.30
2023-08-20T07:28:52.091Z,45.50
2023-08-20T07:34:54.159Z,46.40
2023-08-20T07:40:56.340Z,47.50
2023-08-20T07:46:58.422Z,47.60
2023-08-20T07:53:00.593Z,47.70
2023-08-20T07:59:02.849Z,46.40
2023-08-20T08:05:05.638Z,47.00
2023-08-20T08:11:07.910Z,47.30
2023-08-20T08:17:10.322Z,47.00
2023-08-20T08:23:12.596Z,47.50
2023-08-20T08:29:15.135Z,46.50
2023-08-20T08:35:18.099Z,46.40
2023-08-20T08:41:22.557Z,47.50
2023-08-20T08:47:25.221Z,47.30
2023-08-20T08:53:27.782Z,47.00
2023-08-20T08:59:29.964Z,48.00
2023-08-20T09:05:32.093Z,47.70
2023-08-20T09:11:37.717Z,46.60
2023-08-20T09:17:40.647Z,46.80
2023-08-20T09:23:46.768Z,47.10
2023-08-20T09:29:49.848Z,46.70
2023-08-20T09:35:52.714Z,46.60
2023-08-20T09:41:54.896Z,47.20
2023-08-20T09:48:00.311Z,45.50
2023-08-20T09:54:03.085Z,46.90
2023-08-20T10:00:11.270Z,44.90
2023-08-20T10:06:16.149Z,45.50
2023-08-20T10:12:19.000Z,45.40
2023-08-20T10:18:21.651Z,45.30
2023-08-20T10:24:25.290Z,43.70
2023-08-20T10:30:27.896Z,40.30
2023-08-20T10:36:30.403Z,43.20
2023-08-20T10:42:34.077Z,43.70
2023-08-20T10:48:37.383Z,43.90
2023-08-20T10:54:39.613Z,43.80
2023-08-20T11:00:41.868Z,44.30
2023-08-20T11:06:45.886Z,43.80
2023-08-20T11:12:48.113Z,44.40
2023-08-20T11:18:50.088Z,44.30
2023-08-20T11:24:52.474Z,44.40
2023-08-20T11:30:54.685Z,43.10
2023-08-20T11:36:58.110Z,42.60
2023-08-20T11:43:00.148Z,42.80
2023-08-20T11:49:09.300Z,41.30
2023-08-20T11:55:11.524Z,42.20
2023-08-20T12:01:14.951Z,42.70
2023-08-20T12:07:17.122Z,42.00
2023-08-20T12:13:20.931Z,42.50
2023-08-20T12:19:23.195Z,42.30
2023-08-20T12:25:25.372Z,43.20
2023-08-20T12:31:27.695Z,43.60
2023-08-20T12:37:29.807Z,44.60
2023-08-20T12:43:31.864Z,44.50
2023-08-20T12:49:34.126Z,44.50
2023-08-20T12:55:36.358Z,43.50
2023-08-20T13:01:39.171Z,43.90
2023-08-20T13:07:41.424Z,44.00
2023-08-20T13:13:43.736Z,44.30
2023-08-20T13:19:45.967Z,40.00
2023-08-20T13:25:48.044Z,42.50
2023-08-20T13:31:50.294Z,41.30
2023-08-20T13:37:52.318Z,40.40
2023-08-20T13:43:55.024Z,40.00
2023-08-20T13:49:56.991Z,39.40
2023-08-20T13:55:59.064Z,38.60
2023-08-20T14:02:01.267Z,38.40
2023-08-20T14:08:03.321Z,38.30
2023-08-20T14:14:05.435Z,38.10
2023-08-20T14:20:08.848Z,37.90
2023-08-20T14:26:10.904Z,37.70
2023-08-20T14:32:13.074Z,37.30
2023-08-20T14:38:15.260Z,37.40
2023-08-20T14:44:17.349Z,37.40
2023-08-20T14:50:19.390Z,37.30
2023-08-20T14:56:21.358Z,37.20
2023-08-20T15:02:23.701Z,37.00
2023-08-20T15:08:26.132Z,36.90
2023-08-20T15:14:28.187Z,36.70
2023-08-20T15:20:30.663Z,36.60
2023-08-20T15:26:35.015Z,36.60
2023-08-20T15:32:37.412Z,36.60
2023-08-20T15:38:39.889Z,36.50
2023-08-20T15:44:42.010Z,36.30
2023-08-20T15:50:44.094Z,36.20
2023-08-20T15:56:46.095Z,36.00
2023-08-20T16:02:48.529Z,35.80
2023-08-20T16:08:50.745Z,35.70
2023-08-20T16:14:53.053Z,35.50
2023-08-20T16:20:55.200Z,35.50
2023-08-20T16:26:57.370Z,35.40
2023-08-20T16:32:59.536Z,35.20
2023-08-20T16:39:01.846Z,35.00
2023-08-20T16:45:04.181Z,34.80
2023-08-20T16:51:06.640Z,34.60
2023-08-20T16:57:09.013Z,34.40
2023-08-20T17:03:11.090Z,34.20
2023-08-20T17:09:13.466Z,34.10
2023-08-20T17:15:15.705Z,33.90
2023-08-20T17:21:18.436Z,33.80
2023-08-20T17:27:20.682Z,33.70
2023-08-20T17:33:22.893Z,33.70
2023-08-20T17:39:25.477Z,33.80
2023-08-20T17:45:27.800Z,33.80
2023-08-20T17:51:34.106Z,33.90
2023-08-20T17:57:36.566Z,34.00
2023-08-20T18:03:38.749Z,34.00
2023-08-20T18:09:40.963Z,34.10
2023-08-20T18:15:43.217Z,34.20
2023-08-20T18:21:45.720Z,34.20
2023-08-20T18:27:47.810Z,34.10
2023-08-20T18:33:50.057Z,34.40
2023-08-20T18:39:52.199Z,34.70
2023-08-20T18:45:54.506Z,35.00
2023-08-20T18:51:57.066Z,35.10
2023-08-20T18:57:59.419Z,35.30
2023-08-20T19:04:01.628Z,35.30
2023-08-20T19:10:04.026Z,35.20
2023-08-20T19:16:06.537Z,35.20
2023-08-20T19:22:08.958Z,35.10
2023-08-20T19:28:12.472Z,34.90
2023-08-20T19:34:14.515Z,34.90
2023-08-20T19:40:16.657Z,35.00
2023-08-20T19:46:18.773Z,35.90
2023-08-20T19:52:20.886Z,36.10
2023-08-20T19:58:22.867Z,35.80
2023-08-20T20:04:25.685Z,35.60
2023-08-20T20:10:27.850Z,35.50
2023-08-20T20:16:29.970Z,35.40
2023-08-20T20:22:32.279Z,35.30
2023-08-20T20:28:34.449Z,35.20
2023-08-20T20:34:36.536Z,35.10
2023-08-20T20:40:42.530Z,35.10
2023-08-20T20:46:44.791Z,35.10
2023-08-20T20:52:46.974Z,35.00
2023-08-20T20:58:50.635Z,34.90
2023-08-20T21:04:53.937Z,34.70
2023-08-20T21:10:55.942Z,34.50
2023-08-20T21:16:58.018Z,34.30
2023-08-20T21:23:00.279Z,34.30
2023-08-20T21:29:02.433Z,34.20
2023-08-20T21:35:04.820Z,34.10
2023-08-20T21:41:06.990Z,34.40
2023-08-20T21:47:35.164Z,34.30
2023-08-20T21:53:37.726Z,34.10
2023-08-20T21:59:39.968Z,33.90
2023-08-20T22:05:42.351Z,33.70
2023-08-20T22:11:44.545Z,33.60
2023-08-20T22:17:46.848Z,33.40
2023-08-20T22:23:49.052Z,33.30
2023-08-20T22:29:51.506Z,33.20
2023-08-20T22:35:53.912Z,33.10
2023-08-20T22:41:56.159Z,33.00
2023-08-20T22:47:59.813Z,32.90
2023-08-20T22:54:01.947Z,32.80
2023-08-20T23:00:09.402Z,32.80
2023-08-20T23:06:11.581Z,32.90
2023-08-20T23:12:13.808Z,33.00
2023-08-20T23:18:16.182Z,33.00
2023-08-20T23:24:18.451Z,33.00
2023-08-20T23:30:20.580Z,33.10
2023-08-20T23:36:22.733Z,33.00
2023-08-20T23:42:25.254Z,32.90
2023-08-20T23:48:27.534Z,32.90
2023-08-20T23:54:29.544Z,32.90
